sensor_id;sensor_type;location;lat;lon;timestamp;P1;durP1;ratioP1;P2;durP2;ratioP2
18274;SDS011;19470;49.322;7.218;2024-02-21T00:02:49;14.55;;;6.60;;
18274;SDS011;19470;49.322;7.218;2024-02-21T00:05:16;18.45;;;7.40;;
18274;SDS011;19470;49.322;7.218;2024-02-21T00:07:43;18.80;;;7.32;;
18274;SDS011;19470;49.322;7.218;2024-02-21T00:10:12;15.27;;;6.45;;
18274;SDS011;19470;49.322;7.218;2024-02-21T00:12:38;18.02;;;6.30;;
18274;SDS011;19470;49.322;7.218;2024-02-21T00:15:05;15.15;;;6.38;;
18274;SDS011;19470;49.322;7.218;2024-02-21T00:17:32;13.60;;;6.32;;
18274;SDS011;19470;49.322;7.218;2024-02-21T00:20:00;20.40;;;6.85;;
18274;SDS011;19470;49.322;7.218;2024-02-21T00:22:27;18.67;;;7.03;;
18274;SDS011;19470;49.322;7.218;2024-02-21T00:24:56;18.90;;;6.88;;
18274;SDS011;19470;49.322;7.218;2024-02-21T00:27:23;13.40;;;6.38;;
18274;SDS011;19470;49.322;7.218;2024-02-21T00:29:49;19.90;;;7.45;;
18274;SDS011;19470;49.322;7.218;2024-02-21T00:32:16;18.08;;;6.32;;
18274;SDS011;19470;49.322;7.218;2024-02-21T00:34:43;16.52;;;6.38;;
18274;SDS011;19470;49.322;7.218;2024-02-21T00:37:11;14.40;;;5.85;;
18274;SDS011;19470;49.322;7.218;2024-02-21T00:39:37;15.48;;;5.78;;
18274;SDS011;19470;49.322;7.218;2024-02-21T00:42:04;19.10;;;5.97;;
18274;SDS011;19470;49.322;7.218;2024-02-21T00:44:32;11.98;;;5.65;;
18274;SDS011;19470;49.322;7.218;2024-02-21T00:46:58;16.48;;;6.47;;
18274;SDS011;19470;49.322;7.218;2024-02-21T00:49:25;13.45;;;6.50;;
18274;SDS011;19470;49.322;7.218;2024-02-21T00:51:51;18.65;;;6.65;;
18274;SDS011;19470;49.322;7.218;2024-02-21T00:54:19;14.45;;;6.03;;
18274;SDS011;19470;49.322;7.218;2024-02-21T00:56:46;18.73;;;6.38;;
18274;SDS011;19470;49.322;7.218;2024-02-21T00:59:12;27.08;;;6.35;;
18274;SDS011;19470;49.322;7.218;2024-02-21T01:01:39;14.15;;;6.32;;
18274;SDS011;19470;49.322;7.218;2024-02-21T01:04:07;16.13;;;6.28;;
18274;SDS011;19470;49.322;7.218;2024-02-21T01:06:34;22.63;;;6.90;;
18274;SDS011;19470;49.322;7.218;2024-02-21T01:09:00;15.60;;;5.80;;
18274;SDS011;19470;49.322;7.218;2024-02-21T01:11:28;15.25;;;5.82;;
18274;SDS011;19470;49.322;7.218;2024-02-21T01:13:55;18.35;;;6.45;;
18274;SDS011;19470;49.322;7.218;2024-02-21T01:16:21;15.90;;;6.30;;
18274;SDS011;19470;49.322;7.218;2024-02-21T01:18:48;19.13;;;5.85;;
18274;SDS011;19470;49.322;7.218;2024-02-21T01:21:14;16.58;;;6.18;;
18274;SDS011;19470;49.322;7.218;2024-02-21T01:23:41;18.15;;;6.38;;
18274;SDS011;19470;49.322;7.218;2024-02-21T01:26:07;14.20;;;5.97;;
18274;SDS011;19470;49.322;7.218;2024-02-21T01:28:35;14.90;;;5.88;;
18274;SDS011;19470;49.322;7.218;2024-02-21T01:31:02;16.98;;;6.95;;
18274;SDS011;19470;49.322;7.218;2024-02-21T01:33:29;20.92;;;7.88;;
18274;SDS011;19470;49.322;7.218;2024-02-21T01:35:59;18.38;;;7.18;;
18274;SDS011;19470;49.322;7.218;2024-02-21T01:38:26;18.23;;;6.18;;
18274;SDS011;19470;49.322;7.218;2024-02-21T01:40:53;15.63;;;5.68;;
18274;SDS011;19470;49.322;7.218;2024-02-21T01:43:20;18.75;;;6.40;;
18274;SDS011;19470;49.322;7.218;2024-02-21T01:45:49;11.30;;;5.95;;
18274;SDS011;19470;49.322;7.218;2024-02-21T01:48:17;16.88;;;5.88;;
18274;SDS011;19470;49.322;7.218;2024-02-21T01:50:44;21.17;;;6.93;;
18274;SDS011;19470;49.322;7.218;2024-02-21T01:53:11;16.58;;;6.13;;
18274;SDS011;19470;49.322;7.218;2024-02-21T01:55:42;13.88;;;6.20;;
18274;SDS011;19470;49.322;7.218;2024-02-21T01:58:09;13.77;;;5.68;;
18274;SDS011;19470;49.322;7.218;2024-02-21T02:00:36;13.50;;;5.50;;
18274;SDS011;19470;49.322;7.218;2024-02-21T02:03:05;19.38;;;5.93;;
18274;SDS011;19470;49.322;7.218;2024-02-21T02:05:31;15.35;;;5.90;;
18274;SDS011;19470;49.322;7.218;2024-02-21T02:07:58;17.10;;;6.53;;
18274;SDS011;19470;49.322;7.218;2024-02-21T02:10:25;17.13;;;5.78;;
18274;SDS011;19470;49.322;7.218;2024-02-21T02:12:51;16.20;;;5.97;;
18274;SDS011;19470;49.322;7.218;2024-02-21T02:15:18;18.17;;;6.07;;
18274;SDS011;19470;49.322;7.218;2024-02-21T02:17:45;14.52;;;5.65;;
18274;SDS011;19470;49.322;7.218;2024-02-21T02:20:13;14.05;;;5.38;;
18274;SDS011;19470;49.322;7.218;2024-02-21T02:22:39;18.33;;;5.90;;
18274;SDS011;19470;49.322;7.218;2024-02-21T02:25:10;13.75;;;5.82;;
18274;SDS011;19470;49.322;7.218;2024-02-21T02:27:41;13.45;;;5.60;;
18274;SDS011;19470;49.322;7.218;2024-02-21T02:30:10;15.07;;;6.05;;
18274;SDS011;19470;49.322;7.218;2024-02-21T02:32:37;19.65;;;5.28;;
18274;SDS011;19470;49.322;7.218;2024-02-21T02:35:04;15.82;;;5.55;;
18274;SDS011;19470;49.322;7.218;2024-02-21T02:37:31;19.90;;;6.20;;
18274;SDS011;19470;49.322;7.218;2024-02-21T02:39:57;16.08;;;5.68;;
18274;SDS011;19470;49.322;7.218;2024-02-21T02:42:25;18.52;;;6.07;;
18274;SDS011;19470;49.322;7.218;2024-02-21T02:44:51;21.65;;;6.07;;
18274;SDS011;19470;49.322;7.218;2024-02-21T02:47:18;10.18;;;4.70;;
18274;SDS011;19470;49.322;7.218;2024-02-21T02:49:44;15.73;;;5.22;;
18274;SDS011;19470;49.322;7.218;2024-02-21T02:52:15;13.80;;;5.10;;
18274;SDS011;19470;49.322;7.218;2024-02-21T02:54:42;14.45;;;4.78;;
18274;SDS011;19470;49.322;7.218;2024-02-21T02:57:08;16.33;;;4.72;;
18274;SDS011;19470;49.322;7.218;2024-02-21T02:59:36;13.68;;;4.70;;
18274;SDS011;19470;49.322;7.218;2024-02-21T03:02:02;20.42;;;6.43;;
18274;SDS011;19470;49.322;7.218;2024-02-21T03:04:29;17.80;;;5.43;;
18274;SDS011;19470;49.322;7.218;2024-02-21T03:06:55;12.25;;;5.00;;
18274;SDS011;19470;49.322;7.218;2024-02-21T03:09:22;12.40;;;5.43;;
18274;SDS011;19470;49.322;7.218;2024-02-21T03:11:48;12.20;;;4.85;;
18274;SDS011;19470;49.322;7.218;2024-02-21T03:14:15;15.13;;;4.85;;
18274;SDS011;19470;49.322;7.218;2024-02-21T03:16:42;11.95;;;4.97;;
18274;SDS011;19470;49.322;7.218;2024-02-21T03:19:12;14.85;;;5.30;;
18274;SDS011;19470;49.322;7.218;2024-02-21T03:21:38;14.57;;;5.40;;
18274;SDS011;19470;49.322;7.218;2024-02-21T03:24:05;11.13;;;5.15;;
18274;SDS011;19470;49.322;7.218;2024-02-21T03:26:32;17.52;;;4.80;;
18274;SDS011;19470;49.322;7.218;2024-02-21T03:28:58;11.93;;;4.85;;
18274;SDS011;19470;49.322;7.218;2024-02-21T03:31:25;14.07;;;5.15;;
18274;SDS011;19470;49.322;7.218;2024-02-21T03:33:52;12.77;;;5.20;;
18274;SDS011;19470;49.322;7.218;2024-02-21T03:36:19;15.48;;;5.40;;
18274;SDS011;19470;49.322;7.218;2024-02-21T03:38:45;12.23;;;4.78;;
18274;SDS011;19470;49.322;7.218;2024-02-21T03:41:12;17.35;;;5.75;;
18274;SDS011;19470;49.322;7.218;2024-02-21T03:43:51;17.25;;;5.35;;
18274;SDS011;19470;49.322;7.218;2024-02-21T03:46:17;12.95;;;5.57;;
18274;SDS011;19470;49.322;7.218;2024-02-21T03:48:44;13.60;;;4.88;;
18274;SDS011;19470;49.322;7.218;2024-02-21T03:51:13;11.60;;;4.78;;
18274;SDS011;19470;49.322;7.218;2024-02-21T03:53:40;12.95;;;5.72;;
18274;SDS011;19470;49.322;7.218;2024-02-21T03:56:06;12.48;;;5.22;;
18274;SDS011;19470;49.322;7.218;2024-02-21T03:58:33;15.15;;;5.75;;
18274;SDS011;19470;49.322;7.218;2024-02-21T04:00:59;15.98;;;5.28;;
18274;SDS011;19470;49.322;7.218;2024-02-21T04:03:26;19.15;;;5.35;;
18274;SDS011;19470;49.322;7.218;2024-02-21T04:05:53;14.65;;;5.20;;
18274;SDS011;19470;49.322;7.218;2024-02-21T04:08:21;12.30;;;4.80;;
18274;SDS011;19470;49.322;7.218;2024-02-21T04:10:48;14.50;;;4.70;;
18274;SDS011;19470;49.322;7.218;2024-02-21T04:13:15;15.32;;;5.53;;
18274;SDS011;19470;49.322;7.218;2024-02-21T04:15:41;14.63;;;5.10;;
18274;SDS011;19470;49.322;7.218;2024-02-21T04:18:08;11.10;;;4.68;;
18274;SDS011;19470;49.322;7.218;2024-02-21T04:20:34;14.13;;;5.20;;
18274;SDS011;19470;49.322;7.218;2024-02-21T04:23:01;12.05;;;4.72;;
18274;SDS011;19470;49.322;7.218;2024-02-21T04:25:29;14.50;;;4.97;;
18274;SDS011;19470;49.322;7.218;2024-02-21T04:27:55;34.22;;;14.90;;
18274;SDS011;19470;49.322;7.218;2024-02-21T04:30:21;18.50;;;6.90;;
18274;SDS011;19470;49.322;7.218;2024-02-21T04:32:48;12.25;;;4.28;;
18274;SDS011;19470;49.322;7.218;2024-02-21T04:35:14;15.07;;;4.00;;
18274;SDS011;19470;49.322;7.218;2024-02-21T04:37:41;13.25;;;4.78;;
18274;SDS011;19470;49.322;7.218;2024-02-21T04:40:08;12.30;;;4.80;;
18274;SDS011;19470;49.322;7.218;2024-02-21T04:42:36;10.65;;;4.10;;
18274;SDS011;19470;49.322;7.218;2024-02-21T04:45:03;12.80;;;3.75;;
18274;SDS011;19470;49.322;7.218;2024-02-21T04:47:30;10.30;;;3.88;;
18274;SDS011;19470;49.322;7.218;2024-02-21T04:49:56;11.77;;;3.90;;
18274;SDS011;19470;49.322;7.218;2024-02-21T04:52:23;12.32;;;4.35;;
18274;SDS011;19470;49.322;7.218;2024-02-21T04:54:49;14.10;;;4.15;;
18274;SDS011;19470;49.322;7.218;2024-02-21T04:57:16;13.45;;;4.30;;
18274;SDS011;19470;49.322;7.218;2024-02-21T04:59:44;11.88;;;4.60;;
18274;SDS011;19470;49.322;7.218;2024-02-21T05:02:12;12.73;;;4.18;;
18274;SDS011;19470;49.322;7.218;2024-02-21T05:04:39;12.25;;;4.22;;
18274;SDS011;19470;49.322;7.218;2024-02-21T05:07:06;14.50;;;4.10;;
18274;SDS011;19470;49.322;7.218;2024-02-21T05:09:33;10.45;;;3.65;;
18274;SDS011;19470;49.322;7.218;2024-02-21T05:12:00;14.90;;;3.55;;
18274;SDS011;19470;49.322;7.218;2024-02-21T05:14:26;15.20;;;4.20;;
18274;SDS011;19470;49.322;7.218;2024-02-21T05:16:54;14.52;;;3.75;;
18274;SDS011;19470;49.322;7.218;2024-02-21T05:19:21;12.57;;;3.78;;
18274;SDS011;19470;49.322;7.218;2024-02-21T05:21:47;10.02;;;3.70;;
18274;SDS011;19470;49.322;7.218;2024-02-21T05:24:13;13.77;;;4.15;;
18274;SDS011;19470;49.322;7.218;2024-02-21T05:26:40;11.40;;;3.67;;
18274;SDS011;19470;49.322;7.218;2024-02-21T05:29:06;12.10;;;4.53;;
18274;SDS011;19470;49.322;7.218;2024-02-21T05:31:42;11.30;;;3.90;;
18274;SDS011;19470;49.322;7.218;2024-02-21T05:34:22;11.90;;;3.70;;
18274;SDS011;19470;49.322;7.218;2024-02-21T05:36:49;12.77;;;4.55;;
18274;SDS011;19470;49.322;7.218;2024-02-21T05:39:17;14.68;;;5.20;;
18274;SDS011;19470;49.322;7.218;2024-02-21T05:41:44;14.63;;;5.03;;
18274;SDS011;19470;49.322;7.218;2024-02-21T05:44:11;12.35;;;5.32;;
18274;SDS011;19470;49.322;7.218;2024-02-21T05:46:38;14.32;;;5.35;;
18274;SDS011;19470;49.322;7.218;2024-02-21T05:49:04;12.13;;;5.00;;
18274;SDS011;19470;49.322;7.218;2024-02-21T05:51:33;12.52;;;5.05;;
18274;SDS011;19470;49.322;7.218;2024-02-21T05:54:00;21.33;;;6.05;;
18274;SDS011;19470;49.322;7.218;2024-02-21T05:56:26;16.63;;;4.95;;
18274;SDS011;19470;49.322;7.218;2024-02-21T05:58:53;20.10;;;5.68;;
18274;SDS011;19470;49.322;7.218;2024-02-21T06:01:20;14.40;;;5.22;;
18274;SDS011;19470;49.322;7.218;2024-02-21T06:03:47;13.82;;;5.10;;
18274;SDS011;19470;49.322;7.218;2024-02-21T06:06:13;14.73;;;5.82;;
18274;SDS011;19470;49.322;7.218;2024-02-21T06:08:41;21.30;;;6.13;;
18274;SDS011;19470;49.322;7.218;2024-02-21T06:11:08;17.80;;;6.07;;
18274;SDS011;19470;49.322;7.218;2024-02-21T06:13:37;19.55;;;5.75;;
18274;SDS011;19470;49.322;7.218;2024-02-21T06:16:04;12.10;;;5.90;;
18274;SDS011;19470;49.322;7.218;2024-02-21T06:18:32;19.30;;;6.07;;
18274;SDS011;19470;49.322;7.218;2024-02-21T06:20:58;18.55;;;6.72;;
18274;SDS011;19470;49.322;7.218;2024-02-21T06:23:25;21.67;;;6.45;;
18274;SDS011;19470;49.322;7.218;2024-02-21T06:25:52;16.33;;;5.32;;
18274;SDS011;19470;49.322;7.218;2024-02-21T06:28:19;18.58;;;6.47;;
18274;SDS011;19470;49.322;7.218;2024-02-21T06:30:45;14.48;;;5.72;;
18274;SDS011;19470;49.322;7.218;2024-02-21T06:33:12;19.52;;;5.82;;
18274;SDS011;19470;49.322;7.218;2024-02-21T06:35:38;13.93;;;5.70;;
18274;SDS011;19470;49.322;7.218;2024-02-21T06:38:07;14.32;;;5.97;;
18274;SDS011;19470;49.322;7.218;2024-02-21T06:40:34;17.20;;;6.18;;
18274;SDS011;19470;49.322;7.218;2024-02-21T06:43:05;18.80;;;7.85;;
18274;SDS011;19470;49.322;7.218;2024-02-21T06:45:32;25.45;;;7.65;;
18274;SDS011;19470;49.322;7.218;2024-02-21T06:47:58;22.52;;;5.75;;
18274;SDS011;19470;49.322;7.218;2024-02-21T06:50:25;17.35;;;6.53;;
18274;SDS011;19470;49.322;7.218;2024-02-21T06:52:51;16.13;;;5.80;;
18274;SDS011;19470;49.322;7.218;2024-02-21T06:55:18;13.00;;;5.53;;
18274;SDS011;19470;49.322;7.218;2024-02-21T06:57:44;15.50;;;5.60;;
18274;SDS011;19470;49.322;7.218;2024-02-21T07:00:13;14.45;;;5.57;;
18274;SDS011;19470;49.322;7.218;2024-02-21T07:02:41;12.23;;;5.53;;
18274;SDS011;19470;49.322;7.218;2024-02-21T07:05:08;17.38;;;5.88;;
18274;SDS011;19470;49.322;7.218;2024-02-21T07:07:34;11.50;;;5.53;;
18274;SDS011;19470;49.322;7.218;2024-02-21T07:10:01;9.82;;;5.05;;
18274;SDS011;19470;49.322;7.218;2024-02-21T07:12:27;20.33;;;6.00;;
18274;SDS011;19470;49.322;7.218;2024-02-21T07:14:54;11.13;;;5.32;;
18274;SDS011;19470;49.322;7.218;2024-02-21T07:17:21;15.77;;;4.85;;
18274;SDS011;19470;49.322;7.218;2024-02-21T07:19:48;12.52;;;5.85;;
18274;SDS011;19470;49.322;7.218;2024-02-21T07:22:14;17.10;;;5.32;;
18274;SDS011;19470;49.322;7.218;2024-02-21T07:24:41;12.98;;;5.22;;
18274;SDS011;19470;49.322;7.218;2024-02-21T07:27:07;18.63;;;5.72;;
18274;SDS011;19470;49.322;7.218;2024-02-21T07:29:34;17.33;;;5.30;;
18274;SDS011;19470;49.322;7.218;2024-02-21T07:32:00;14.23;;;5.43;;
18274;SDS011;19470;49.322;7.218;2024-02-21T07:34:28;36.75;;;17.35;;
18274;SDS011;19470;49.322;7.218;2024-02-21T07:36:55;17.95;;;7.47;;
18274;SDS011;19470;49.322;7.218;2024-02-21T07:39:22;18.27;;;4.95;;
18274;SDS011;19470;49.322;7.218;2024-02-21T07:41:48;18.38;;;5.53;;
18274;SDS011;19470;49.322;7.218;2024-02-21T07:44:15;14.60;;;5.07;;
18274;SDS011;19470;49.322;7.218;2024-02-21T07:46:41;14.75;;;5.82;;
18274;SDS011;19470;49.322;7.218;2024-02-21T07:49:08;13.80;;;5.35;;
18274;SDS011;19470;49.322;7.218;2024-02-21T07:51:36;12.32;;;4.78;;
18274;SDS011;19470;49.322;7.218;2024-02-21T07:54:02;14.88;;;5.05;;
18274;SDS011;19470;49.322;7.218;2024-02-21T07:56:29;12.23;;;4.90;;
18274;SDS011;19470;49.322;7.218;2024-02-21T07:58:56;14.95;;;4.60;;
18274;SDS011;19470;49.322;7.218;2024-02-21T08:01:22;12.80;;;5.30;;
18274;SDS011;19470;49.322;7.218;2024-02-21T08:03:49;16.00;;;5.25;;
18274;SDS011;19470;49.322;7.218;2024-02-21T08:06:15;12.90;;;4.45;;
18274;SDS011;19470;49.322;7.218;2024-02-21T08:08:43;9.55;;;4.47;;
18274;SDS011;19470;49.322;7.218;2024-02-21T08:11:09;16.45;;;4.85;;
18274;SDS011;19470;49.322;7.218;2024-02-21T08:13:36;13.63;;;5.13;;
18274;SDS011;19470;49.322;7.218;2024-02-21T08:16:02;20.02;;;5.15;;
18274;SDS011;19470;49.322;7.218;2024-02-21T08:18:29;9.57;;;4.20;;
18274;SDS011;19470;49.322;7.218;2024-02-21T08:20:55;13.15;;;4.57;;
18274;SDS011;19470;49.322;7.218;2024-02-21T08:23:22;12.32;;;4.97;;
18274;SDS011;19470;49.322;7.218;2024-02-21T08:25:51;13.85;;;4.60;;
18274;SDS011;19470;49.322;7.218;2024-02-21T08:28:18;16.75;;;4.93;;
18274;SDS011;19470;49.322;7.218;2024-02-21T08:30:44;14.85;;;5.38;;
18274;SDS011;19470;49.322;7.218;2024-02-21T08:33:13;16.70;;;4.35;;
18274;SDS011;19470;49.322;7.218;2024-02-21T08:35:39;13.20;;;4.43;;
18274;SDS011;19470;49.322;7.218;2024-02-21T08:38:05;16.38;;;5.95;;
18274;SDS011;19470;49.322;7.218;2024-02-21T08:40:32;10.88;;;4.40;;
18274;SDS011;19470;49.322;7.218;2024-02-21T08:43:01;16.70;;;5.13;;
18274;SDS011;19470;49.322;7.218;2024-02-21T08:45:28;20.08;;;4.65;;
18274;SDS011;19470;49.322;7.218;2024-02-21T08:47:55;11.55;;;4.00;;
18274;SDS011;19470;49.322;7.218;2024-02-21T08:50:21;14.80;;;4.70;;
18274;SDS011;19470;49.322;7.218;2024-02-21T08:52:48;14.38;;;4.80;;
18274;SDS011;19470;49.322;7.218;2024-02-21T08:55:14;14.27;;;4.22;;
18274;SDS011;19470;49.322;7.218;2024-02-21T08:57:41;13.82;;;4.72;;
18274;SDS011;19470;49.322;7.218;2024-02-21T09:00:10;16.83;;;4.50;;
18274;SDS011;19470;49.322;7.218;2024-02-21T09:02:39;14.27;;;4.57;;
18274;SDS011;19470;49.322;7.218;2024-02-21T09:05:07;11.93;;;4.65;;
18274;SDS011;19470;49.322;7.218;2024-02-21T09:07:34;11.88;;;4.20;;
18274;SDS011;19470;49.322;7.218;2024-02-21T09:10:00;17.52;;;4.30;;
18274;SDS011;19470;49.322;7.218;2024-02-21T09:12:27;9.82;;;4.15;;
18274;SDS011;19470;49.322;7.218;2024-02-21T09:14:54;8.95;;;3.97;;
18274;SDS011;19470;49.322;7.218;2024-02-21T09:17:22;10.90;;;3.70;;
18274;SDS011;19470;49.322;7.218;2024-02-21T09:19:50;14.77;;;4.25;;
18274;SDS011;19470;49.322;7.218;2024-02-21T09:22:16;16.15;;;4.15;;
18274;SDS011;19470;49.322;7.218;2024-02-21T09:24:42;15.30;;;4.40;;
18274;SDS011;19470;49.322;7.218;2024-02-21T09:27:09;14.25;;;3.85;;
18274;SDS011;19470;49.322;7.218;2024-02-21T09:29:35;20.08;;;4.28;;
18274;SDS011;19470;49.322;7.218;2024-02-21T09:32:02;12.05;;;3.78;;
18274;SDS011;19470;49.322;7.218;2024-02-21T09:34:30;12.90;;;4.35;;
18274;SDS011;19470;49.322;7.218;2024-02-21T09:36:57;9.70;;;3.08;;
18274;SDS011;19470;49.322;7.218;2024-02-21T09:39:23;14.43;;;4.75;;
18274;SDS011;19470;49.322;7.218;2024-02-21T09:41:50;16.15;;;5.63;;
18274;SDS011;19470;49.322;7.218;2024-02-21T09:44:20;16.45;;;4.88;;
18274;SDS011;19470;49.322;7.218;2024-02-21T09:46:50;19.02;;;3.80;;
18274;SDS011;19470;49.322;7.218;2024-02-21T09:49:21;14.38;;;4.18;;
18274;SDS011;19470;49.322;7.218;2024-02-21T09:51:57;16.65;;;3.97;;
18274;SDS011;19470;49.322;7.218;2024-02-21T09:54:28;11.93;;;3.42;;
18274;SDS011;19470;49.322;7.218;2024-02-21T09:56:55;13.45;;;3.58;;
18274;SDS011;19470;49.322;7.218;2024-02-21T09:59:21;13.43;;;3.58;;
18274;SDS011;19470;49.322;7.218;2024-02-21T10:01:49;12.50;;;4.00;;
18274;SDS011;19470;49.322;7.218;2024-02-21T10:04:16;13.48;;;3.08;;
18274;SDS011;19470;49.322;7.218;2024-02-21T10:06:45;11.85;;;3.55;;
18274;SDS011;19470;49.322;7.218;2024-02-21T10:09:19;10.40;;;3.20;;
18274;SDS011;19470;49.322;7.218;2024-02-21T10:11:47;11.43;;;3.72;;
18274;SDS011;19470;49.322;7.218;2024-02-21T10:14:15;13.27;;;4.45;;
18274;SDS011;19470;49.322;7.218;2024-02-21T10:16:42;12.27;;;3.53;;
18274;SDS011;19470;49.322;7.218;2024-02-21T10:19:15;13.95;;;4.05;;
18274;SDS011;19470;49.322;7.218;2024-02-21T10:21:42;13.40;;;3.60;;
18274;SDS011;19470;49.322;7.218;2024-02-21T10:24:11;10.52;;;3.65;;
18274;SDS011;19470;49.322;7.218;2024-02-21T10:26:38;12.98;;;2.90;;
18274;SDS011;19470;49.322;7.218;2024-02-21T10:29:05;10.80;;;3.03;;
18274;SDS011;19470;49.322;7.218;2024-02-21T10:31:31;9.38;;;3.17;;
18274;SDS011;19470;49.322;7.218;2024-02-21T10:33:58;11.02;;;3.47;;
18274;SDS011;19470;49.322;7.218;2024-02-21T10:36:28;13.05;;;3.65;;
18274;SDS011;19470;49.322;7.218;2024-02-21T10:38:55;10.00;;;3.35;;
18274;SDS011;19470;49.322;7.218;2024-02-21T10:41:23;13.00;;;3.33;;
18274;SDS011;19470;49.322;7.218;2024-02-21T10:43:52;8.07;;;3.13;;
18274;SDS011;19470;49.322;7.218;2024-02-21T10:46:20;11.38;;;3.72;;
18274;SDS011;19470;49.322;7.218;2024-02-21T10:48:48;7.63;;;3.15;;
18274;SDS011;19470;49.322;7.218;2024-02-21T10:51:26;11.35;;;3.00;;
18274;SDS011;19470;49.322;7.218;2024-02-21T10:54:02;8.63;;;2.90;;
18274;SDS011;19470;49.322;7.218;2024-02-21T10:56:40;8.52;;;2.65;;
18274;SDS011;19470;49.322;7.218;2024-02-21T10:59:07;13.05;;;3.38;;
18274;SDS011;19470;49.322;7.218;2024-02-21T11:01:34;8.93;;;2.70;;
18274;SDS011;19470;49.322;7.218;2024-02-21T11:04:01;6.93;;;2.53;;
18274;SDS011;19470;49.322;7.218;2024-02-21T11:06:30;8.88;;;2.60;;
18274;SDS011;19470;49.322;7.218;2024-02-21T11:09:01;11.55;;;3.08;;
18274;SDS011;19470;49.322;7.218;2024-02-21T11:11:29;11.98;;;2.92;;
18274;SDS011;19470;49.322;7.218;2024-02-21T11:14:04;8.13;;;2.80;;
18274;SDS011;19470;49.322;7.218;2024-02-21T11:16:35;12.15;;;5.63;;
18274;SDS011;19470;49.322;7.218;2024-02-21T11:19:06;5.60;;;2.40;;
18274;SDS011;19470;49.322;7.218;2024-02-21T11:21:34;11.88;;;2.85;;
18274;SDS011;19470;49.322;7.218;2024-02-21T11:24:01;12.70;;;2.72;;
18274;SDS011;19470;49.322;7.218;2024-02-21T11:26:28;13.98;;;3.17;;
18274;SDS011;19470;49.322;7.218;2024-02-21T11:28:56;6.45;;;2.67;;
18274;SDS011;19470;49.322;7.218;2024-02-21T11:31:26;7.25;;;3.22;;
18274;SDS011;19470;49.322;7.218;2024-02-21T11:33:53;8.98;;;3.22;;
18274;SDS011;19470;49.322;7.218;2024-02-21T11:36:23;9.80;;;2.80;;
18274;SDS011;19470;49.322;7.218;2024-02-21T11:38:52;8.00;;;2.38;;
18274;SDS011;19470;49.322;7.218;2024-02-21T11:41:19;12.05;;;3.25;;
18274;SDS011;19470;49.322;7.218;2024-02-21T11:43:45;5.82;;;2.60;;
18274;SDS011;19470;49.322;7.218;2024-02-21T11:46:12;6.93;;;3.00;;
18274;SDS011;19470;49.322;7.218;2024-02-21T11:48:41;9.52;;;2.92;;
18274;SDS011;19470;49.322;7.218;2024-02-21T11:51:09;7.93;;;2.60;;
18274;SDS011;19470;49.322;7.218;2024-02-21T11:53:36;8.93;;;2.53;;
18274;SDS011;19470;49.322;7.218;2024-02-21T11:56:03;9.02;;;2.75;;
18274;SDS011;19470;49.322;7.218;2024-02-21T11:58:29;8.95;;;2.88;;
18274;SDS011;19470;49.322;7.218;2024-02-21T12:00:56;9.48;;;3.28;;
18274;SDS011;19470;49.322;7.218;2024-02-21T12:03:23;7.47;;;2.50;;
18274;SDS011;19470;49.322;7.218;2024-02-21T12:05:52;8.07;;;2.55;;
18274;SDS011;19470;49.322;7.218;2024-02-21T12:08:21;7.03;;;2.63;;
18274;SDS011;19470;49.322;7.218;2024-02-21T12:10:48;9.90;;;3.15;;
18274;SDS011;19470;49.322;7.218;2024-02-21T12:13:16;7.82;;;2.78;;
18274;SDS011;19470;49.322;7.218;2024-02-21T12:15:47;8.48;;;2.72;;
18274;SDS011;19470;49.322;7.218;2024-02-21T12:18:13;11.32;;;2.58;;
18274;SDS011;19470;49.322;7.218;2024-02-21T12:20:40;8.90;;;2.95;;
18274;SDS011;19470;49.322;7.218;2024-02-21T12:23:10;8.25;;;3.10;;
18274;SDS011;19470;49.322;7.218;2024-02-21T12:25:36;8.93;;;3.40;;
18274;SDS011;19470;49.322;7.218;2024-02-21T12:28:05;8.75;;;2.97;;
18274;SDS011;19470;49.322;7.218;2024-02-21T12:30:32;7.63;;;2.60;;
18274;SDS011;19470;49.322;7.218;2024-02-21T12:33:00;6.78;;;2.67;;
18274;SDS011;19470;49.322;7.218;2024-02-21T12:35:27;9.02;;;2.63;;
18274;SDS011;19470;49.322;7.218;2024-02-21T12:37:53;9.32;;;2.85;;
18274;SDS011;19470;49.322;7.218;2024-02-21T12:40:21;8.23;;;3.20;;
18274;SDS011;19470;49.322;7.218;2024-02-21T12:42:47;7.25;;;2.70;;
18274;SDS011;19470;49.322;7.218;2024-02-21T12:45:14;8.95;;;2.95;;
18274;SDS011;19470;49.322;7.218;2024-02-21T12:47:41;7.55;;;2.80;;
18274;SDS011;19470;49.322;7.218;2024-02-21T12:50:08;11.48;;;3.10;;
18274;SDS011;19470;49.322;7.218;2024-02-21T12:52:35;7.45;;;2.63;;
18274;SDS011;19470;49.322;7.218;2024-02-21T12:55:02;7.88;;;2.08;;
18274;SDS011;19470;49.322;7.218;2024-02-21T12:57:30;7.72;;;2.70;;
18274;SDS011;19470;49.322;7.218;2024-02-21T12:59:56;7.68;;;2.72;;
18274;SDS011;19470;49.322;7.218;2024-02-21T13:02:23;10.27;;;2.70;;
18274;SDS011;19470;49.322;7.218;2024-02-21T13:04:49;9.93;;;3.03;;
18274;SDS011;19470;49.322;7.218;2024-02-21T13:07:16;7.47;;;2.85;;
18274;SDS011;19470;49.322;7.218;2024-02-21T13:09:42;7.68;;;2.95;;
18274;SDS011;19470;49.322;7.218;2024-02-21T13:12:09;6.22;;;2.80;;
18274;SDS011;19470;49.322;7.218;2024-02-21T13:14:37;9.38;;;2.50;;
18274;SDS011;19470;49.322;7.218;2024-02-21T13:17:04;7.50;;;2.83;;
18274;SDS011;19470;49.322;7.218;2024-02-21T13:19:31;15.38;;;4.57;;
18274;SDS011;19470;49.322;7.218;2024-02-21T13:21:57;6.10;;;2.35;;
18274;SDS011;19470;49.322;7.218;2024-02-21T13:24:24;8.27;;;3.10;;
18274;SDS011;19470;49.322;7.218;2024-02-21T13:26:50;7.10;;;2.67;;
18274;SDS011;19470;49.322;7.218;2024-02-21T13:29:17;5.40;;;2.60;;
18274;SDS011;19470;49.322;7.218;2024-02-21T13:31:44;7.78;;;2.33;;
18274;SDS011;19470;49.322;7.218;2024-02-21T13:34:11;5.45;;;2.78;;
18274;SDS011;19470;49.322;7.218;2024-02-21T13:36:37;5.55;;;2.53;;
18274;SDS011;19470;49.322;7.218;2024-02-21T13:39:04;9.32;;;2.65;;
18274;SDS011;19470;49.322;7.218;2024-02-21T13:41:30;8.95;;;2.75;;
18274;SDS011;19470;49.322;7.218;2024-02-21T13:43:58;7.05;;;2.63;;
18274;SDS011;19470;49.322;7.218;2024-02-21T13:46:25;6.03;;;2.30;;
18274;SDS011;19470;49.322;7.218;2024-02-21T13:48:53;10.18;;;2.80;;
18274;SDS011;19470;49.322;7.218;2024-02-21T13:51:30;9.73;;;2.67;;
18274;SDS011;19470;49.322;7.218;2024-02-21T13:53:56;9.10;;;2.85;;
18274;SDS011;19470;49.322;7.218;2024-02-21T13:56:24;7.13;;;3.03;;
18274;SDS011;19470;49.322;7.218;2024-02-21T13:58:50;6.13;;;2.58;;
18274;SDS011;19470;49.322;7.218;2024-02-21T14:01:17;11.57;;;2.92;;
18274;SDS011;19470;49.322;7.218;2024-02-21T14:03:43;7.72;;;2.33;;
18274;SDS011;19470;49.322;7.218;2024-02-21T14:06:11;9.05;;;2.38;;
18274;SDS011;19470;49.322;7.218;2024-02-21T14:08:38;7.18;;;2.75;;
18274;SDS011;19470;49.322;7.218;2024-02-21T14:11:05;10.10;;;3.00;;
18274;SDS011;19470;49.322;7.218;2024-02-21T14:13:32;6.70;;;2.50;;
18274;SDS011;19470;49.322;7.218;2024-02-21T14:15:58;8.13;;;2.58;;
18274;SDS011;19470;49.322;7.218;2024-02-21T14:18:25;7.70;;;2.35;;
18274;SDS011;19470;49.322;7.218;2024-02-21T14:20:52;12.23;;;4.65;;
18274;SDS011;19470;49.322;7.218;2024-02-21T14:23:20;10.60;;;5.18;;
18274;SDS011;19470;49.322;7.218;2024-02-21T14:25:46;8.05;;;2.47;;
18274;SDS011;19470;49.322;7.218;2024-02-21T14:28:13;5.28;;;2.30;;
18274;SDS011;19470;49.322;7.218;2024-02-21T14:30:39;7.07;;;2.63;;
18274;SDS011;19470;49.322;7.218;2024-02-21T14:33:06;10.10;;;2.17;;
18274;SDS011;19470;49.322;7.218;2024-02-21T14:35:33;5.65;;;2.05;;
18274;SDS011;19470;49.322;7.218;2024-02-21T14:37:59;7.53;;;2.60;;
18274;SDS011;19470;49.322;7.218;2024-02-21T14:40:27;5.65;;;2.10;;